Time;durP1;ratioP1;P1;durP2;ratioP2;P2;SDS_P1;SDS_P2;PMS_P1;PMS_P2;Temp;Humidity;BMP_temperature;BMP_pressure;BME280_temperature;BME280_humidity;BME280_pressure;Samples;Min_cycle;Max_cycle;Signal;HPM_P1;HPM_P2
2023/08/12 00:00:38;;;;;;;;;;;;;;;;;;1897179;28;7088;-70
2023/08/12 00:01:36;;;;;;;;;;;;;;;;;;1904309;28;7086;-70
2023/08/12 00:02:33;;;;;;;;;;;;;;;;;;1905807;28;7046;-69
2023/08/12 00:03:31;;;;;;;;;;;;;;;;;;1904360;28;7113;-70
2023/08/12 00:04:29;;;;;;;;;;;;;;;;;;1904478;28;7005;-70
2023/08/12 00:05:26;;;;;;;;;;;;;;;;;;1904521;28;7096;-69
2023/08/12 00:06:24;;;;;;;;;;;;;;;;;;1904364;28;7046;-70
2023/08/12 00:07:21;;;;;;;;;;;;;;;;;;1905075;28;7005;-69
2023/08/12 00:08:19;;;;;;;;;;;;;;;;;;1903787;28;7108;-71
2023/08/12 00:09:18;;;;;;;;;;;;;;;;;;1903863;28;8191;-70
2023/08/12 00:10:15;;;;;;;;;;;;;;;;;;1905273;28;7042;-69
2023/08/12 00:11:12;;;;;;;;;;;;;;;;;;1904927;28;7109;-70
2023/08/12 00:12:10;;;;;;;;;;;;;;;;;;1904596;28;8126;-69
2023/08/12 00:13:07;;;;;;;;;;;;;;;;;;1904324;28;7042;-70
2023/08/12 00:14:05;;;;;;;;;;;;;;;;;;1904909;28;7108;-70
2023/08/12 00:15:04;;;;;;;;;;;;;;;;;;1904633;28;7009;-70
2023/08/12 00:16:01;;;;;;;;;;;;;;;;;;1905485;28;7017;-70
2023/08/12 00:16:59;;;;;;;;;;;;;;;;;;1905142;28;7017;-70
2023/08/12 00:17:56;;;;;;;;;;;;;;;;;;1905126;28;7045;-70
2023/08/12 00:18:54;;;;;;;;;;;;;;;;;;1904427;28;7042;-69
2023/08/12 00:19:51;;;;;;;;;;;;;;;;;;1904152;28;7025;-70
2023/08/12 00:20:49;;;;;;;;;;;;;;;;;;1904702;28;7021;-69
2023/08/12 00:21:46;;;;;;;;;;;;;;;;;;1904201;28;7010;-70
2023/08/12 00:22:44;;;;;;;;;;;;;;;;;;1905208;28;7010;-70
2023/08/12 00:23:42;;;;;;;;;;;;;;;;;;1896669;28;7336;-69
2023/08/12 00:24:40;;;;;;;;;;;;;;;;;;1896551;28;7376;-70
2023/08/12 00:25:37;;;;;;;;;;;;;;;;;;1901557;28;7054;-70
2023/08/12 00:26:35;;;;;;;;;;;;;;;;;;1903558;28;7013;-69
2023/08/12 00:27:32;;;;;;;;;;;;;;;;;;1904138;28;7141;-69
2023/08/12 00:28:30;;;;;;;;;;;;;;;;;;1903580;28;7013;-69
2023/08/12 00:29:27;;;;;;;;;;;;;;;;;;1896202;28;7014;-70
2023/08/12 00:30:24;;;;;;;;;;;;;;;;;;1896610;28;7152;-69
2023/08/12 00:31:22;;;;;;;;;;;;;;;;;;1899715;28;7046;-69
2023/08/12 00:32:20;;;;;;;;;;;;;;;;;;1902986;28;7429;-69
2023/08/12 00:33:18;;;;;;;;;;;;;;;;;;1904001;28;7041;-69
2023/08/12 00:34:16;;;;;;;;;;;;;;;;;;1901460;28;7013;-69
2023/08/12 00:35:14;;;;;;;;;;;;;;;;;;1903715;28;7092;-70
2023/08/12 00:36:11;;;;;;;;;;;;;;;;;;1903019;28;7097;-70
2023/08/12 00:37:09;;;;;;;;;;;;;;;;;;1904524;28;7042;-69
2023/08/12 00:38:07;;;;;;;;;;;;;;;;;;1904568;28;7009;-69
2023/08/12 00:39:05;;;;;;;;;;;;;;;;;;1903412;28;7100;-69
2023/08/12 00:40:03;;;;;;;;;;;;;;;;;;1903499;28;7062;-70
2023/08/12 00:41:00;;;;;;;;;;;;;;;;;;1901593;28;7045;-70
2023/08/12 00:41:58;;;;;;;;;;;;;;;;;;1903979;28;7025;-69
2023/08/12 00:42:55;;;;;;;;;;;;;;;;;;1904474;28;7046;-70
2023/08/12 00:43:53;;;;;;;;;;;;;;;;;;1904947;28;7031;-69
2023/08/12 00:44:50;;;;;;;;;;;;;;;;;;1903378;28;7128;-70
2023/08/12 00:45:48;;;;;;;;;;;;;;;;;;1903864;28;7089;-70
2023/08/12 00:46:45;;;;;;;;;;;;;;;;;;1903424;28;8039;-69
2023/08/12 00:47:43;;;;;;;;;;;;;;;;;;1901862;28;7045;-69
2023/08/12 00:48:40;;;;;;;;;;;;;;;;;;1901987;28;7419;-69
2023/08/12 00:49:40;;;;;;;;;;;;;;;;;;1901716;28;8611;-69
2023/08/12 00:50:39;;;;;;;;;;;;;;;;;;1901892;28;7010;-70
2023/08/12 00:51:39;;;;;;;;;;;;;;;;;;1901640;28;7010;-69
2023/08/12 00:52:37;;;;;;;;;;;;;;;;;;1892721;28;7021;-70
2023/08/12 00:53:34;;;;;;;;;;;;;;;;;;1900533;28;7009;-69
2023/08/12 00:54:32;;;;;;;;;;;;;;;;;;1906450;28;7005;-70
2023/08/12 00:55:29;;;;;;;;;;;;;;;;;;1902199;28;7049;-69
2023/08/12 00:56:27;;;;;;;;;;;;;;;;;;1900604;28;7013;-69
2023/08/12 00:57:25;;;;;;;;;;;;;;;;;;1901284;28;7117;-69
2023/08/12 00:58:23;;;;;;;;;;;;;;;;;;1900204;28;7114;-69
2023/08/12 00:59:22;;;;;;;;;;;;;;;;;;1900066;28;7013;-70
2023/08/12 01:00:20;;;;;;;;;;;;;;;;;;1901074;28;7152;-69
2023/08/12 01:01:19;;;;;;;;;;;;;;;;;;1900967;28;7005;-69
2023/08/12 01:02:17;;;;;;;;;;;;;;;;;;1900704;28;7001;-69
2023/08/12 01:03:15;;;;;;;;;;;;;;;;;;1901038;28;7292;-69
2023/08/12 01:04:13;;;;;;;;;;;;;;;;;;1900894;28;7017;-70
2023/08/12 01:05:11;;;;;;;;;;;;;;;;;;1901198;28;7025;-69
2023/08/12 01:06:08;;;;;;;;;;;;;;;;;;1904295;28;7323;-70
2023/08/12 01:07:06;;;;;;;;;;;;;;;;;;1904393;28;7026;-69
2023/08/12 01:08:04;;;;;;;;;;;;;;;;;;1904459;28;8058;-69
2023/08/12 01:09:04;;;;;;;;;;;;;;;;;;1902746;28;7017;-69
2023/08/12 01:10:02;;;;;;;;;;;;;;;;;;1896780;28;7001;-69
2023/08/12 01:11:22;;;;;;;;;;;;;;;;;;1895438;28;7045;-70
2023/08/12 01:12:28;;;;;;;;;;;;;;;;;;1894634;28;7552;-70
2023/08/12 01:13:33;;;;;;;;;;;;;;;;;;1902684;28;7050;-70
2023/08/12 01:14:36;;;;;;;;;;;;;;;;;;1901657;28;7050;-69
2023/08/12 01:15:35;;;;;;;;;;;;;;;;;;1896503;28;8050;-69
2023/08/12 01:16:37;;;;;;;;;;;;;;;;;;1900321;28;8117;-69
2023/08/12 01:17:37;;;;;;;;;;;;;;;;;;1904260;28;7029;-69
2023/08/12 01:18:36;;;;;;;;;;;;;;;;;;1896776;28;7010;-70
2023/08/12 01:19:34;;;;;;;;;;;;;;;;;;1896459;28;7018;-72
2023/08/12 01:20:32;;;;;;;;;;;;;;;;;;1896838;28;7168;-70
2023/08/12 01:21:31;;;;;;;;;;;;;;;;;;1897970;28;7029;-69
2023/08/12 01:22:32;;;;;;;;;;;;;;;;;;1903869;28;7093;-70
2023/08/12 01:23:29;;;;;;;;;;;;;;;;;;1903997;28;7096;-69
2023/08/12 01:24:33;;;;;;;;;;;;;;;;;;1902985;28;7034;-69
2023/08/12 01:25:30;;;;;;;;;;;;;;;;;;1904236;28;7108;-70
2023/08/12 01:26:28;;;;;;;;;;;;;;;;;;1904832;28;8035;-69
2023/08/12 01:27:25;;;;;;;;;;;;;;;;;;1896170;28;7005;-69
2023/08/12 01:28:23;;;;;;;;;;;;;;;;;;1894630;28;7050;-71
2023/08/12 01:29:20;;;;;;;;;;;;;;;;;;1902740;28;7085;-69
2023/08/12 01:30:19;;;;;;;;;;;;;;;;;;1903765;28;7005;-69
2023/08/12 01:31:32;;;;;;;;;;;;;;;;;;1903480;28;7010;-69
2023/08/12 01:32:29;;;;;;;;;;;;;;;;;;1902428;28;7014;-69
2023/08/12 01:33:43;;;;;;;;;;;;;;;;;;1904486;28;7013;-69
2023/08/12 01:34:46;;;;;;;;;;;;;;;;;;1903922;28;7097;-70
2023/08/12 01:35:51;;;;;;;;;;;;;;;;;;1903175;28;7021;-70
2023/08/12 01:36:54;;;;;;;;;;;;;;;;;;1904354;28;8066;-70
2023/08/12 01:37:54;;;;;;;;;;;;;;;;;;1896240;28;7100;-69
2023/08/12 01:38:56;;;;;;;;;;;;;;;;;;1903437;28;7062;-69
2023/08/12 01:39:55;;;;;;;;;;;;;;;;;;1911005;28;7053;-70
2023/08/12 01:40:53;;;;;;;;;;;;;;;;;;1904555;28;7124;-70
2023/08/12 01:41:52;;;;;;;;;;;;;;;;;;1903758;28;7050;-69
2023/08/12 01:42:50;;;;;;;;;;;;;;;;;;1904489;28;7025;-70
2023/08/12 01:43:48;;;;;;;;;;;;;;;;;;1903244;28;7058;-69
2023/08/12 01:44:46;;;;;;;;;;;;;;;;;;1903651;28;7049;-69
2023/08/12 01:45:44;;;;;;;;;;;;;;;;;;1903783;28;7030;-70
2023/08/12 01:46:42;;;;;;;;;;;;;;;;;;1904116;28;7010;-70
2023/08/12 01:47:43;;;;;;;;;;;;;;;;;;1903809;28;7034;-69
2023/08/12 01:48:40;;;;;;;;;;;;;;;;;;1903919;28;7167;-69
2023/08/12 01:49:38;;;;;;;;;;;;;;;;;;1901994;28;7050;-70
2023/08/12 01:50:35;;;;;;;;;;;;;;;;;;1903935;28;8093;-69
2023/08/12 01:51:32;;;;;;;;;;;;;;;;;;1903845;28;7009;-70
2023/08/12 01:52:30;;;;;;;;;;;;;;;;;;1905351;28;7014;-70
2023/08/12 01:53:27;;;;;;;;;;;;;;;;;;1905903;28;7323;-69
2023/08/12 01:54:25;;;;;;;;;;;;;;;;;;1905938;28;7013;-70
2023/08/12 01:55:22;;;;;;;;;;;;;;;;;;1906219;28;7029;-69
2023/08/12 01:56:20;;;;;;;;;;;;;;;;;;1905259;28;7009;-70
2023/08/12 01:57:17;;;;;;;;;;;;;;;;;;1904409;28;7014;-69
2023/08/12 01:58:15;;;;;;;;;;;;;;;;;;1905865;28;7116;-70
2023/08/12 01:59:12;;;;;;;;;;;;;;;;;;1905688;28;7113;-70
2023/08/12 02:00:09;;;;;;;;;;;;;;;;;;1905481;28;9034;-70
2023/08/12 02:01:07;;;;;;;;;;;;;;;;;;1905182;28;7017;-70
2023/08/12 02:02:04;;;;;;;;;;;;;;;;;;1905884;28;7049;-69
2023/08/12 02:03:02;;;;;;;;;;;;;;;;;;1905029;28;7053;-70
2023/08/12 02:03:59;;;;;;;;;;;;;;;;;;1905941;28;7009;-69
2023/08/12 02:04:57;;;;;;;;;;;;;;;;;;1904740;28;8158;-69
2023/08/12 02:05:54;;;;;;;;;;;;;;;;;;1905477;28;7078;-69
2023/08/12 02:06:52;;;;;;;;;;;;;;;;;;1902817;28;10018;-69
2023/08/12 02:07:50;;;;;;;;;;;;;;;;;;1904983;28;7013;-69
2023/08/12 02:08:47;;;;;;;;;;;;;;;;;;1905560;28;7017;-69
2023/08/12 02:09:45;;;;;;;;;;;;;;;;;;1905488;28;6998;-69
2023/08/12 02:10:42;;;;;;;;;;;;;;;;;;1905708;28;7038;-69
2023/08/12 02:11:40;;;;;;;;;;;;;;;;;;1905703;28;7037;-70
2023/08/12 02:12:37;;;;;;;;;;;;;;;;;;1904338;28;7466;-69
2023/08/12 02:13:35;;;;;;;;;;;;;;;;;;1905214;28;7144;-69
2023/08/12 02:14:32;;;;;;;;;;;;;;;;;;1905353;28;7017;-69
2023/08/12 02:15:29;;;;;;;;;;;;;;;;;;1905588;28;7005;-70
2023/08/12 02:16:27;;;;;;;;;;;;;;;;;;1905745;28;7041;-70
2023/08/12 02:17:24;;;;;;;;;;;;;;;;;;1897766;28;7096;-70
2023/08/12 02:18:22;;;;;;;;;;;;;;;;;;1896316;28;7022;-70
2023/08/12 02:19:19;;;;;;;;;;;;;;;;;;1904969;28;7017;-69
2023/08/12 02:20:18;;;;;;;;;;;;;;;;;;1905541;28;7014;-69
2023/08/12 02:21:16;;;;;;;;;;;;;;;;;;1905432;28;7009;-69
2023/08/12 02:22:13;;;;;;;;;;;;;;;;;;1905890;28;7141;-69
2023/08/12 02:23:11;;;;;;;;;;;;;;;;;;1903943;28;7010;-69
2023/08/12 02:24:08;;;;;;;;;;;;;;;;;;1905960;28;7009;-70
2023/08/12 02:25:06;;;;;;;;;;;;;;;;;;1905267;28;7092;-70
2023/08/12 02:26:03;;;;;;;;;;;;;;;;;;1905622;28;7104;-70
2023/08/12 02:27:00;;;;;;;;;;;;;;;;;;1905427;28;7006;-70
2023/08/12 02:27:58;;;;;;;;;;;;;;;;;;1905415;28;7085;-69
2023/08/12 02:28:56;;;;;;;;;;;;;;;;;;1905974;28;7080;-69
2023/08/12 02:29:53;;;;;;;;;;;;;;;;;;1904578;28;7034;-69
2023/08/12 02:30:50;;;;;;;;;;;;;;;;;;1905489;28;7050;-69
2023/08/12 02:31:48;;;;;;;;;;;;;;;;;;1904439;28;7061;-70
2023/08/12 02:32:46;;;;;;;;;;;;;;;;;;1905351;28;7073;-70
2023/08/12 02:33:44;;;;;;;;;;;;;;;;;;1905125;28;7021;-68
2023/08/12 02:34:41;;;;;;;;;;;;;;;;;;1905012;28;7096;-70
2023/08/12 02:35:38;;;;;;;;;;;;;;;;;;1906045;28;7018;-72
2023/08/12 02:36:36;;;;;;;;;;;;;;;;;;1905453;28;7093;-70
2023/08/12 02:37:33;;;;;;;;;;;;;;;;;;1905245;28;7092;-69
2023/08/12 02:38:31;;;;;;;;;;;;;;;;;;1904943;28;7101;-70
2023/08/12 02:39:28;;;;;;;;;;;;;;;;;;1903212;28;7009;-69
2023/08/12 02:40:25;;;;;;;;;;;;;;;;;;1904016;28;7018;-69
2023/08/12 02:41:23;;;;;;;;;;;;;;;;;;1905101;28;7017;-70
2023/08/12 02:42:20;;;;;;;;;;;;;;;;;;1905696;28;7021;-69
2023/08/12 02:43:18;;;;;;;;;;;;;;;;;;1904438;28;7010;-70
2023/08/12 02:44:15;;;;;;;;;;;;;;;;;;1904715;28;7056;-70
2023/08/12 02:45:13;;;;;;;;;;;;;;;;;;1905555;28;7014;-69
2023/08/12 02:46:10;;;;;;;;;;;;;;;;;;1905795;28;7057;-70
2023/08/12 02:47:08;;;;;;;;;;;;;;;;;;1904908;28;7320;-69
2023/08/12 02:48:05;;;;;;;;;;;;;;;;;;1905557;28;7009;-70
2023/08/12 02:49:03;;;;;;;;;;;;;;;;;;1905625;28;7092;-69
2023/08/12 02:50:00;;;;;;;;;;;;;;;;;;1905857;28;7002;-69
2023/08/12 02:50:58;;;;;;;;;;;;;;;;;;1904871;28;7013;-69
2023/08/12 02:51:55;;;;;;;;;;;;;;;;;;1905102;28;7006;-70
2023/08/12 02:52:53;;;;;;;;;;;;;;;;;;1905001;28;7045;-69
2023/08/12 02:53:50;;;;;;;;;;;;;;;;;;1905394;28;7093;-70
2023/08/12 02:54:47;;;;;;;;;;;;;;;;;;1902517;28;7038;-70
2023/08/12 02:55:45;;;;;;;;;;;;;;;;;;1906127;28;7005;-69
2023/08/12 02:56:43;;;;;;;;;;;;;;;;;;1905049;28;7121;-69
2023/08/12 02:57:41;;;;;;;;;;;;;;;;;;1905190;28;7116;-70
2023/08/12 02:58:38;;;;;;;;;;;;;;;;;;1905288;28;7125;-70
2023/08/12 02:59:36;;;;;;;;;;;;;;;;;;1905590;28;7013;-70
2023/08/12 03:00:33;;;;;;;;;;;;;;;;;;1904218;28;7005;-70
2023/08/12 03:01:30;;;;;;;;;;;;;;;;;;1904159;28;7014;-69
2023/08/12 03:02:28;;;;;;;;;;;;;;;;;;1904797;28;7013;-69
2023/08/12 03:03:25;;;;;;;;;;;;;;;;;;1904833;28;7010;-69
2023/08/12 03:04:23;;;;;;;;;;;;;;;;;;1904986;28;7009;-70
2023/08/12 03:05:21;;;;;;;;;;;;;;;;;;1904688;28;7136;-69
2023/08/12 03:06:18;;;;;;;;;;;;;;;;;;1904924;28;7013;-69
2023/08/12 03:07:16;;;;;;;;;;;;;;;;;;1905105;28;7100;-69
2023/08/12 03:08:13;;;;;;;;;;;;;;;;;;1904549;28;7101;-70
2023/08/12 03:09:11;;;;;;;;;;;;;;;;;;1905825;28;7018;-69
2023/08/12 03:10:09;;;;;;;;;;;;;;;;;;1904502;28;7202;-69
2023/08/12 03:11:06;;;;;;;;;;;;;;;;;;1901202;28;7104;-69
2023/08/12 03:12:04;;;;;;;;;;;;;;;;;;1902502;28;7999;-69
2023/08/12 03:13:02;;;;;;;;;;;;;;;;;;1905353;28;7013;-70
2023/08/12 03:13:59;;;;;;;;;;;;;;;;;;1905299;28;7013;-69
2023/08/12 03:14:57;;;;;;;;;;;;;;;;;;1905414;28;7092;-69
2023/08/12 03:15:54;;;;;;;;;;;;;;;;;;1905942;28;7081;-69
2023/08/12 03:16:52;;;;;;;;;;;;;;;;;;1897707;28;7018;-69
2023/08/12 03:17:49;;;;;;;;;;;;;;;;;;1897083;28;7005;-69
2023/08/12 03:18:47;;;;;;;;;;;;;;;;;;1903964;28;7017;-70
2023/08/12 03:19:44;;;;;;;;;;;;;;;;;;1905402;28;7009;-70
2023/08/12 03:20:41;;;;;;;;;;;;;;;;;;1905055;28;7046;-70
2023/08/12 03:21:39;;;;;;;;;;;;;;;;;;1905493;28;7014;-69
2023/08/12 03:22:37;;;;;;;;;;;;;;;;;;1905807;28;7096;-70
2023/08/12 03:23:38;;;;;;;;;;;;;;;;;;1904161;28;7014;-69
2023/08/12 03:24:35;;;;;;;;;;;;;;;;;;1905441;28;7037;-71
2023/08/12 03:25:32;;;;;;;;;;;;;;;;;;1905323;28;7010;-69
2023/08/12 03:26:30;;;;;;;;;;;;;;;;;;1905533;28;7089;-70
2023/08/12 03:27:27;;;;;;;;;;;;;;;;;;1904218;28;7001;-69
2023/08/12 03:28:25;;;;;;;;;;;;;;;;;;1905354;28;7013;-69
2023/08/12 03:29:22;;;;;;;;;;;;;;;;;;1904734;28;7010;-69
2023/08/12 03:30:19;;;;;;;;;;;;;;;;;;1905208;28;7006;-69
2023/08/12 03:31:17;;;;;;;;;;;;;;;;;;1901165;28;7005;-70
2023/08/12 03:32:15;;;;;;;;;;;;;;;;;;1903802;28;7014;-70
2023/08/12 03:33:14;;;;;;;;;;;;;;;;;;1905261;28;7009;-69
2023/08/12 03:34:11;;;;;;;;;;;;;;;;;;1903933;28;7092;-69
2023/08/12 03:35:09;;;;;;;;;;;;;;;;;;1905211;28;7092;-69
2023/08/12 03:36:06;;;;;;;;;;;;;;;;;;1904406;28;7017;-69
2023/08/12 03:37:04;;;;;;;;;;;;;;;;;;1905657;28;7013;-69
2023/08/12 03:38:01;;;;;;;;;;;;;;;;;;1905069;28;7042;-70
2023/08/12 03:38:58;;;;;;;;;;;;;;;;;;1904467;28;7324;-69
2023/08/12 03:39:56;;;;;;;;;;;;;;;;;;1905768;28;7050;-68
2023/08/12 03:40:53;;;;;;;;;;;;;;;;;;1904899;28;7018;-68
2023/08/12 03:41:52;;;;;;;;;;;;;;;;;;1905344;28;7340;-68
2023/08/12 03:42:50;;;;;;;;;;;;;;;;;;1904677;28;7042;-67
2023/08/12 03:43:47;;;;;;;;;;;;;;;;;;1904894;28;7034;-68
2023/08/12 03:44:45;;;;;;;;;;;;;;;;;;1904807;28;7113;-69
2023/08/12 03:45:43;;;;;;;;;;;;;;;;;;1905219;28;7002;-67
2023/08/12 03:46:40;;;;;;;;;;;;;;;;;;1905390;28;8047;-69
2023/08/12 03:47:38;;;;;;;;;;;;;;;;;;1905543;28;7046;-68
2023/08/12 03:48:35;;;;;;;;;;;;;;;;;;1904444;28;7009;-69
2023/08/12 03:49:33;;;;;;;;;;;;;;;;;;1903995;28;7120;-70
2023/08/12 03:50:33;;;;;;;;;;;;;;;;;;1905570;28;7120;-68
2023/08/12 03:51:30;;;;;;;;;;;;;;;;;;1905232;28;7010;-69
2023/08/12 03:52:28;;;;;;;;;;;;;;;;;;1905486;28;7896;-69
2023/08/12 03:53:25;;;;;;;;;;;;;;;;;;1905161;28;7010;-69
2023/08/12 03:54:23;;;;;;;;;;;;;;;;;;1905336;28;7080;-68
2023/08/12 03:55:20;;;;;;;;;;;;;;;;;;1902938;28;8039;-69
2023/08/12 03:56:18;;;;;;;;;;;;;;;;;;1905415;28;7100;-68
2023/08/12 03:57:15;;;;;;;;;;;;;;;;;;1905457;28;7050;-68
2023/08/12 03:58:12;;;;;;;;;;;;;;;;;;1905999;28;7113;-69
2023/08/12 03:59:10;;;;;;;;;;;;;;;;;;1905355;28;7021;-70
2023/08/12 04:00:08;;;;;;;;;;;;;;;;;;1905545;28;7035;-69
2023/08/12 04:01:05;;;;;;;;;;;;;;;;;;1904239;28;7121;-69
2023/08/12 04:02:03;;;;;;;;;;;;;;;;;;1905278;28;7042;-69
2023/08/12 04:03:01;;;;;;;;;;;;;;;;;;1904492;28;7017;-69
2023/08/12 04:03:58;;;;;;;;;;;;;;;;;;1905553;28;7228;-69
2023/08/12 04:04:56;;;;;;;;;;;;;;;;;;1905862;28;7096;-69
2023/08/12 04:05:54;;;;;;;;;;;;;;;;;;1905120;28;7093;-69
2023/08/12 04:06:51;;;;;;;;;;;;;;;;;;1905452;28;8085;-69
2023/08/12 04:07:48;;;;;;;;;;;;;;;;;;1904414;28;7045;-69
2023/08/12 04:08:46;;;;;;;;;;;;;;;;;;1904389;28;7041;-68
2023/08/12 04:09:43;;;;;;;;;;;;;;;;;;1905264;28;7034;-68
2023/08/12 04:10:44;;;;;;;;;;;;;;;;;;1905181;28;7010;-69
2023/08/12 04:11:42;;;;;;;;;;;;;;;;;;1905853;28;7096;-70
2023/08/12 04:12:40;;;;;;;;;;;;;;;;;;1904729;28;7009;-72
2023/08/12 04:13:38;;;;;;;;;;;;;;;;;;1904446;28;7018;-69
2023/08/12 04:14:35;;;;;;;;;;;;;;;;;;1904942;28;7089;-68
2023/08/12 04:15:32;;;;;;;;;;;;;;;;;;1905201;28;7014;-68
2023/08/12 04:16:30;;;;;;;;;;;;;;;;;;1905191;28;8059;-68
2023/08/12 04:17:27;;;;;;;;;;;;;;;;;;1905251;28;7005;-68
2023/08/12 04:18:25;;;;;;;;;;;;;;;;;;1905187;28;7010;-69
2023/08/12 04:19:22;;;;;;;;;;;;;;;;;;1904937;28;7009;-68
2023/08/12 04:20:20;;;;;;;;;;;;;;;;;;1904938;28;7953;-69
2023/08/12 04:21:18;;;;;;;;;;;;;;;;;;1903259;28;7126;-68
2023/08/12 04:22:16;;;;;;;;;;;;;;;;;;1903717;28;7021;-69
2023/08/12 04:23:14;;;;;;;;;;;;;;;;;;1904889;28;7010;-68
2023/08/12 04:24:11;;;;;;;;;;;;;;;;;;1904252;28;7120;-69
2023/08/12 04:25:09;;;;;;;;;;;;;;;;;;1904392;28;7005;-68
2023/08/12 04:26:06;;;;;;;;;;;;;;;;;;1904788;28;7120;-68
2023/08/12 04:27:04;;;;;;;;;;;;;;;;;;1905015;28;7088;-68
2023/08/12 04:28:01;;;;;;;;;;;;;;;;;;1897006;28;7009;-69
2023/08/12 04:28:58;;;;;;;;;;;;;;;;;;1889299;28;7006;-69
2023/08/12 04:29:56;;;;;;;;;;;;;;;;;;1896085;28;7046;-68
2023/08/12 04:30:53;;;;;;;;;;;;;;;;;;1903842;28;7094;-68
2023/08/12 04:31:52;;;;;;;;;;;;;;;;;;1905225;28;7116;-69
2023/08/12 04:32:50;;;;;;;;;;;;;;;;;;1903875;28;7005;-69
2023/08/12 04:33:49;;;;;;;;;;;;;;;;;;1896608;28;7204;-68
2023/08/12 04:34:46;;;;;;;;;;;;;;;;;;1904242;28;7006;-68
2023/08/12 04:35:44;;;;;;;;;;;;;;;;;;1904411;28;7058;-69
2023/08/12 04:36:41;;;;;;;;;;;;;;;;;;1903170;28;7022;-69
2023/08/12 04:37:40;;;;;;;;;;;;;;;;;;1905322;28;7005;-69
2023/08/12 04:38:39;;;;;;;;;;;;;;;;;;1904986;28;7009;-68
2023/08/12 04:39:36;;;;;;;;;;;;;;;;;;1902560;28;7021;-69
2023/08/12 04:40:34;;;;;;;;;;;;;;;;;;1904639;28;7042;-68
2023/08/12 04:41:33;;;;;;;;;;;;;;;;;;1904705;28;7042;-68
2023/08/12 04:42:30;;;;;;;;;;;;;;;;;;1904434;28;7062;-68
2023/08/12 04:43:28;;;;;;;;;;;;;;;;;;1904881;28;7013;-68
2023/08/12 04:44:25;;;;;;;;;;;;;;;;;;1904914;28;7241;-69
2023/08/12 04:45:23;;;;;;;;;;;;;;;;;;1904695;28;7013;-68
2023/08/12 04:46:20;;;;;;;;;;;;;;;;;;1905175;28;7006;-69
2023/08/12 04:47:18;;;;;;;;;;;;;;;;;;1903192;28;7010;-68
2023/08/12 04:48:15;;;;;;;;;;;;;;;;;;1904902;28;7005;-69
2023/08/12 04:49:13;;;;;;;;;;;;;;;;;;1904303;28;7112;-69
2023/08/12 04:50:10;;;;;;;;;;;;;;;;;;1904894;28;7017;-68
2023/08/12 04:51:08;;;;;;;;;;;;;;;;;;1904089;28;7046;-69
2023/08/12 04:52:06;;;;;;;;;;;;;;;;;;1904931;28;7033;-68
2023/08/12 04:53:04;;;;;;;;;;;;;;;;;;1905276;28;7042;-68
2023/08/12 04:54:02;;;;;;;;;;;;;;;;;;1896181;28;9044;-69
2023/08/12 04:54:59;;;;;;;;;;;;;;;;;;1896582;28;7029;-68
2023/08/12 04:55:57;;;;;;;;;;;;;;;;;;1903247;28;7081;-68
2023/08/12 04:56:56;;;;;;;;;;;;;;;;;;1904583;28;7033;-68
2023/08/12 04:57:53;;;;;;;;;;;;;;;;;;1904247;28;7009;-69
2023/08/12 04:58:51;;;;;;;;;;;;;;;;;;1904523;28;7135;-71
2023/08/12 04:59:48;;;;;;;;;;;;;;;;;;1904541;28;7045;-69
2023/08/12 05:00:46;;;;;;;;;;;;;;;;;;1904869;28;7013;-69
2023/08/12 05:01:43;;;;;;;;;;;;;;;;;;1904917;28;8008;-69
2023/08/12 05:03:00;;;;;;;;;;;;;;;;;;1904141;28;7005;-69
2023/08/12 05:03:57;;;;;;;;;;;;;;;;;;1904451;28;7159;-69
2023/08/12 05:04:54;;;;;;;;;;;;;;;;;;1904713;28;7092;-69
2023/08/12 05:05:52;;;;;;;;;;;;;;;;;;1905056;28;7317;-69
2023/08/12 05:06:50;;;;;;;;;;;;;;;;;;1904791;28;8715;-70
2023/08/12 05:07:50;;;;;;;;;;;;;;;;;;1904433;28;7284;-68
2023/08/12 05:08:47;;;;;;;;;;;;;;;;;;1904185;28;7005;-67
2023/08/12 05:09:45;;;;;;;;;;;;;;;;;;1904939;28;7002;-71
2023/08/12 05:10:43;;;;;;;;;;;;;;;;;;1903212;28;7029;-69
2023/08/12 05:11:40;;;;;;;;;;;;;;;;;;1904210;28;7078;-69
2023/08/12 05:12:37;;;;;;;;;;;;;;;;;;1904551;28;7050;-69
2023/08/12 05:13:35;;;;;;;;;;;;;;;;;;1904785;28;7033;-69
2023/08/12 05:14:32;;;;;;;;;;;;;;;;;;1904346;28;7311;-69
2023/08/12 05:15:30;;;;;;;;;;;;;;;;;;1904921;28;8127;-70
2023/08/12 05:16:28;;;;;;;;;;;;;;;;;;1904535;28;7261;-70
2023/08/12 05:17:26;;;;;;;;;;;;;;;;;;1904716;28;7010;-70
2023/08/12 05:18:23;;;;;;;;;;;;;;;;;;1904150;28;7446;-69
2023/08/12 05:19:21;;;;;;;;;;;;;;;;;;1904404;28;7315;-69
2023/08/12 05:20:18;;;;;;;;;;;;;;;;;;1904482;28;7101;-69
2023/08/12 05:21:16;;;;;;;;;;;;;;;;;;1904076;28;7205;-69
2023/08/12 05:22:13;;;;;;;;;;;;;;;;;;1904623;28;7097;-69
2023/08/12 05:23:11;;;;;;;;;;;;;;;;;;1905217;28;7245;-69
2023/08/12 05:24:08;;;;;;;;;;;;;;;;;;1904265;28;7093;-69
2023/08/12 05:25:06;;;;;;;;;;;;;;;;;;1904181;28;7109;-69
2023/08/12 05:26:03;;;;;;;;;;;;;;;;;;1904027;28;7013;-69
2023/08/12 05:27:01;;;;;;;;;;;;;;;;;;1903420;28;7014;-69
2023/08/12 05:27:58;;;;;;;;;;;;;;;;;;1903491;28;7009;-69
2023/08/12 05:28:55;;;;;;;;;;;;;;;;;;1903468;28;8111;-69
2023/08/12 05:29:53;;;;;;;;;;;;;;;;;;1904772;28;7009;-69
2023/08/12 05:30:50;;;;;;;;;;;;;;;;;;1904463;28;7006;-69
2023/08/12 05:31:48;;;;;;;;;;;;;;;;;;1904000;28;7010;-69
2023/08/12 05:32:45;;;;;;;;;;;;;;;;;;1904159;28;7041;-69
2023/08/12 05:33:43;;;;;;;;;;;;;;;;;;1904783;28;7069;-70
2023/08/12 05:34:40;;;;;;;;;;;;;;;;;;1904259;28;7131;-69
2023/08/12 05:35:38;;;;;;;;;;;;;;;;;;1904025;28;7153;-69
2023/08/12 05:36:36;;;;;;;;;;;;;;;;;;1905436;28;7372;-70
2023/08/12 05:37:33;;;;;;;;;;;;;;;;;;1904553;28;7014;-69
2023/08/12 05:38:31;;;;;;;;;;;;;;;;;;1904423;28;7096;-69
2023/08/12 05:39:28;;;;;;;;;;;;;;;;;;1904650;28;7084;-69
2023/08/12 05:40:26;;;;;;;;;;;;;;;;;;1904494;28;8032;-69
2023/08/12 05:41:23;;;;;;;;;;;;;;;;;;1903722;28;7009;-70
2023/08/12 05:42:21;;;;;;;;;;;;;;;;;;1903773;28;7093;-70
2023/08/12 05:43:21;;;;;;;;;;;;;;;;;;1904854;28;7014;-69
2023/08/12 05:44:19;;;;;;;;;;;;;;;;;;1902382;28;7034;-69
2023/08/12 05:45:16;;;;;;;;;;;;;;;;;;1904535;28;7088;-69
2023/08/12 05:46:13;;;;;;;;;;;;;;;;;;1904710;28;7281;-69
2023/08/12 05:47:11;;;;;;;;;;;;;;;;;;1904045;28;7042;-69
2023/08/12 05:48:08;;;;;;;;;;;;;;;;;;1904100;28;7009;-69
2023/08/12 05:49:06;;;;;;;;;;;;;;;;;;1911712;28;8179;-69
2023/08/12 05:50:04;;;;;;;;;;;;;;;;;;1911237;28;7171;-69
2023/08/12 05:51:01;;;;;;;;;;;;;;;;;;1906008;28;8050;-69
2023/08/12 05:51:59;;;;;;;;;;;;;;;;;;1904896;28;7013;-69
2023/08/12 05:52:56;;;;;;;;;;;;;;;;;;1896623;28;7141;-69
2023/08/12 05:53:54;;;;;;;;;;;;;;;;;;1896292;28;7074;-69
2023/08/12 05:54:51;;;;;;;;;;;;;;;;;;1891131;28;7021;-69
2023/08/12 05:55:48;;;;;;;;;;;;;;;;;;1896541;28;7121;-70
2023/08/12 05:56:46;;;;;;;;;;;;;;;;;;1903707;28;7017;-71
2023/08/12 05:57:43;;;;;;;;;;;;;;;;;;1904820;28;7021;-70
2023/08/12 05:58:41;;;;;;;;;;;;;;;;;;1904130;28;7082;-69
2023/08/12 05:59:38;;;;;;;;;;;;;;;;;;1904577;28;7050;-70
2023/08/12 06:00:35;;;;;;;;;;;;;;;;;;1902211;28;7322;-69
2023/08/12 06:01:33;;;;;;;;;;;;;;;;;;1903600;28;7113;-69
2023/08/12 06:02:31;;;;;;;;;;;;;;;;;;1903819;28;7021;-69
2023/08/12 06:03:28;;;;;;;;;;;;;;;;;;1902259;28;7116;-69
2023/08/12 06:04:26;;;;;;;;;;;;;;;;;;1904763;28;7014;-69
2023/08/12 06:05:23;;;;;;;;;;;;;;;;;;1899338;28;7117;-69
2023/08/12 06:06:21;;;;;;;;;;;;;;;;;;1903018;28;7089;-69
2023/08/12 06:07:19;;;;;;;;;;;;;;;;;;1903460;28;7275;-70
2023/08/12 06:08:16;;;;;;;;;;;;;;;;;;1904319;28;7096;-70
2023/08/12 06:09:16;;;;;;;;;;;;;;;;;;1898934;28;7002;-69
2023/08/12 06:10:14;;;;;;;;;;;;;;;;;;1897283;28;8083;-70
2023/08/12 06:11:11;;;;;;;;;;;;;;;;;;1897273;28;7109;-69
2023/08/12 06:12:08;;;;;;;;;;;;;;;;;;1896776;28;7014;-69
2023/08/12 06:13:07;;;;;;;;;;;;;;;;;;1896914;28;7010;-70
2023/08/12 06:14:04;;;;;;;;;;;;;;;;;;1896718;28;7002;-69
2023/08/12 06:15:02;;;;;;;;;;;;;;;;;;1896951;28;7315;-69
2023/08/12 06:15:59;;;;;;;;;;;;;;;;;;1897029;28;7006;-69
2023/08/12 06:16:57;;;;;;;;;;;;;;;;;;1896430;28;8031;-70
2023/08/12 06:17:55;;;;;;;;;;;;;;;;;;1899740;28;8027;-69
2023/08/12 06:18:53;;;;;;;;;;;;;;;;;;1897070;28;7014;-70
2023/08/12 06:19:50;;;;;;;;;;;;;;;;;;1896848;28;7014;-69
2023/08/12 06:20:48;;;;;;;;;;;;;;;;;;1897324;28;7009;-69
2023/08/12 06:21:45;;;;;;;;;;;;;;;;;;1896957;28;7104;-69
2023/08/12 06:22:42;;;;;;;;;;;;;;;;;;1898917;28;7109;-70
2023/08/12 06:23:40;;;;;;;;;;;;;;;;;;1895881;28;7022;-70
2023/08/12 06:24:37;;;;;;;;;;;;;;;;;;1896471;28;7009;-69
2023/08/12 06:25:36;;;;;;;;;;;;;;;;;;1895673;28;7013;-69
2023/08/12 06:26:33;;;;;;;;;;;;;;;;;;1898118;28;8030;-69
2023/08/12 06:27:31;;;;;;;;;;;;;;;;;;1903962;28;7097;-69
2023/08/12 06:28:29;;;;;;;;;;;;;;;;;;1904341;28;7109;-69
2023/08/12 06:29:26;;;;;;;;;;;;;;;;;;1904270;28;7017;-69
2023/08/12 06:30:24;;;;;;;;;;;;;;;;;;1897056;28;7034;-69
2023/08/12 06:31:21;;;;;;;;;;;;;;;;;;1897313;28;7009;-69
2023/08/12 06:32:19;;;;;;;;;;;;;;;;;;1897170;28;7002;-69
2023/08/12 06:33:16;;;;;;;;;;;;;;;;;;1902354;28;7030;-69
2023/08/12 06:34:16;;;;;;;;;;;;;;;;;;1898113;28;7974;-69
2023/08/12 06:35:14;;;;;;;;;;;;;;;;;;1899429;28;7125;-69
2023/08/12 06:36:11;;;;;;;;;;;;;;;;;;1903848;28;7025;-69
2023/08/12 06:37:09;;;;;;;;;;;;;;;;;;1901370;28;7013;-69
2023/08/12 06:38:06;;;;;;;;;;;;;;;;;;1905589;28;7082;-70
2023/08/12 06:39:04;;;;;;;;;;;;;;;;;;1897769;28;8165;-70
2023/08/12 06:40:02;;;;;;;;;;;;;;;;;;1899922;28;7022;-70
2023/08/12 06:40:59;;;;;;;;;;;;;;;;;;1897201;28;7042;-69
2023/08/12 06:41:58;;;;;;;;;;;;;;;;;;1898232;28;7009;-69
2023/08/12 06:42:56;;;;;;;;;;;;;;;;;;1898151;28;7025;-69